Vashon Island, Washington
Current Conditions -  °F | °C
As of 12:53 PM on Thursday 27 Nov 2014 (Local Time) from KSEA Reporting Station
Broken Clouds Broken Clouds  
Wind Chill: 56°   Ceiling: 1800
Heat Index: 56°   Visibility: 10mi
Dew Point: 51°   Wind: 21mph
Humidity: 84%   Direction: 200°SSW
Pressure: 29.81"   Gusts: 28mph
Location:  47.4122°N, 122.472°W
Report Text: KSEA 272053Z 20018G24KT 10SM FEW007 BKN018 BKN035 13/11 A2981 RMK AO2 SLP102 60001 T01330106 56016
Loading
Personal Weather Stations






























Interactive Weather Map New forecast layout! Learn more

10-Day Weather Forecast

Advertisements
Track Severe Weather on mobile